Skip to main content

NOAA/GLERL Met Station at Muskegon, MI

Previous 3 Hours (2 minute increments)
See also Previous 5 Days (top of hour)
Jump down to Data
Switch to [English][Metric]
Zoom: Click and drag, Pan: shift-click and drag, Unzoom: double-click, Unzoom All






See also 1-day windrose plot


NOAA/GLERL Met Station at Muskegon, MI

Previous 3 Hours (2 minute increments)
See also Previous 5 Days (top of hour only)
Jump up to Graphs
Switch to [English][Metric]
                  Wind  Wind  Wind   Air   Dew   Rel     Sta   PAR
                   Spd   Gst   Dir  Temp    Pt   Hum    Pres uE/m2/
YYYY-MM-DD   EST   m/s   m/s   deg     C     C     %      mb   sec
2024-03-03 14:34 -99.0 -99.0   -99  19.4   6.7  43.4  989.70  1522
2024-03-03 14:32 -99.0 -99.0   -99  19.3   6.8  43.9  989.80  1607
2024-03-03 14:30 -99.0 -99.0   -99  19.3   6.7  43.8  989.90  1643
2024-03-03 14:28 -99.0 -99.0   -99  19.2   6.6  43.7  989.90  1628
2024-03-03 14:26 -99.0 -99.0   -99  19.2   6.7  44.1  989.90  1633
2024-03-03 14:24 -99.0 -99.0   -99  19.0   6.6  44.3  989.90  1636
2024-03-03 14:22 -99.0 -99.0   -99  19.0   6.7  44.5  989.90  1635
2024-03-03 14:20 -99.0 -99.0   -99  19.2   6.8  44.2  989.90  1638
2024-03-03 14:18 -99.0 -99.0   -99  19.4   6.8  44.0  989.90  1627
2024-03-03 14:16 -99.0 -99.0   -99  19.2   6.9  44.6  989.90  1612
2024-03-03 14:14 -99.0 -99.0   -99  18.7   6.7  45.5  989.90  1621
2024-03-03 14:12 -99.0 -99.0   -99  18.8   6.5  44.5  990.10  1614
2024-03-03 14:10 -99.0 -99.0   -99  18.9   6.4  44.0  990.20  1594
2024-03-03 14:08 -99.0 -99.0   -99  19.1   6.6  44.0  990.40  1611
2024-03-03 14:06 -99.0 -99.0   -99  19.2   6.8  44.3  990.50  1614
2024-03-03 14:04 -99.0 -99.0   -99  19.5   6.8  43.4  990.50  1615
2024-03-03 14:02 -99.0 -99.0   -99  19.5   6.7  43.4  990.50  1647
2024-03-03 14:00 -99.0 -99.0   -99  19.3   6.9  44.3  990.40  1638
2024-03-03 13:58 -99.0 -99.0   -99  18.9   6.7  44.9  990.40  1641
2024-03-03 13:56 -99.0 -99.0   -99  18.9   6.4  44.1  990.40  1650
2024-03-03 13:54 -99.0 -99.0   -99  19.0   6.6  44.4  990.40  1648
2024-03-03 13:52 -99.0 -99.0   -99  18.9   6.6  44.8  990.40  1642
2024-03-03 13:50 -99.0 -99.0   -99  18.6   6.5  45.4  990.30  1638
2024-03-03 13:48 -99.0 -99.0   -99  18.5   6.5  45.5  990.30  1646
2024-03-03 13:46 -99.0 -99.0   -99  18.6   6.7  45.7  990.40  1644
2024-03-03 13:44 -99.0 -99.0   -99  18.5   6.7  46.1  990.50  1648
2024-03-03 13:42 -99.0 -99.0   -99  18.3   6.7  46.4  990.50  1635
2024-03-03 13:40 -99.0 -99.0   -99  18.1   6.6  47.0  990.50  1616
2024-03-03 13:38 -99.0 -99.0   -99  18.1   6.6  47.0  990.50  1638
2024-03-03 13:36 -99.0 -99.0   -99  18.2   6.6  46.5  990.60  1640
2024-03-03 13:34 -99.0 -99.0   -99  18.5   6.8  46.4  990.70  1654
2024-03-03 13:32 -99.0 -99.0   -99  18.4   6.8  46.5  990.60  1668
2024-03-03 13:30 -99.0 -99.0   -99  18.3   6.8  46.8  990.70  1665
2024-03-03 13:28 -99.0 -99.0   -99  18.4   6.8  46.9  990.80  1657
2024-03-03 13:26 -99.0 -99.0   -99  18.0   7.0  48.6  990.90  1651
2024-03-03 13:24 -99.0 -99.0   -99  17.2   6.7  50.2  991.00  1642
2024-03-03 13:22 -99.0 -99.0   -99  17.4   6.6  48.9  991.00  1639
2024-03-03 13:20 -99.0 -99.0   -99  17.7   6.9  49.2  991.00  1638
2024-03-03 13:18 -99.0 -99.0   -99  17.3   6.9  50.2  991.00  1631
2024-03-03 13:16 -99.0 -99.0   -99  17.1   7.0  51.2  991.10  1625
2024-03-03 13:14 -99.0 -99.0   -99  16.2   6.8  54.0  991.30  1618
2024-03-03 13:12 -99.0 -99.0   -99  15.1   6.3  55.9  991.30  1618
2024-03-03 13:10 -99.0 -99.0   -99  14.7   6.1  56.2  991.40  1618
2024-03-03 13:08 -99.0 -99.0   -99  14.2   5.9  57.2  991.50  1619
2024-03-03 13:06 -99.0 -99.0   -99  14.1   5.7  56.9  991.60  1619
2024-03-03 13:04 -99.0 -99.0   -99  14.5   5.8  56.0  991.60  1618
2024-03-03 13:02 -99.0 -99.0   -99  14.8   6.2  56.5  991.60  1622
2024-03-03 13:00 -99.0 -99.0   -99  14.2   6.1  58.0  991.60  1619
2024-03-03 12:58 -99.0 -99.0   -99  13.8   6.0  59.4  991.70  1597
2024-03-03 12:56 -99.0 -99.0   -99  13.1   5.8  61.0  991.70  1621
2024-03-03 12:54 -99.0 -99.0   -99  11.8   5.5  65.0  991.80  1619
2024-03-03 12:52 -99.0 -99.0   -99  11.1   4.4  63.1  991.80  1616
2024-03-03 12:50 -99.0 -99.0   -99  12.5   5.0  60.1  991.90  1615
2024-03-03 12:48 -99.0 -99.0   -99  13.2   5.3  58.8  991.90  1611
2024-03-03 12:46 -99.0 -99.0   -99  13.7   5.7  58.7  992.00  1615
2024-03-03 12:44 -99.0 -99.0   -99  13.9   5.4  56.6  992.10  1615
2024-03-03 12:42 -99.0 -99.0   -99  14.4   6.2  57.5  992.10  1612
2024-03-03 12:40 -99.0 -99.0   -99  14.1   6.3  59.1  992.10  1617
2024-03-03 12:38 -99.0 -99.0   -99  13.1   6.1  62.3  992.10  1620
2024-03-03 12:36 -99.0 -99.0   -99  12.0   5.5  64.4  992.10  1617
2024-03-03 12:34 -99.0 -99.0   -99  11.6   5.0  64.0  992.10  1621
2024-03-03 12:32 -99.0 -99.0   -99  11.8   5.3  64.2  992.10  1621
2024-03-03 12:30 -99.0 -99.0   -99  11.5   5.3  65.2  992.10  1615
2024-03-03 12:28 -99.0 -99.0   -99  11.4   5.2  65.6  992.00  1614
2024-03-03 12:26 -99.0 -99.0   -99  10.8   5.1  67.8  992.10  1612
2024-03-03 12:24 -99.0 -99.0   -99  10.5   4.8  67.9  992.10  1455
2024-03-03 12:22 -99.0 -99.0   -99  10.3   4.8  68.4  992.10  1599
2024-03-03 12:20 -99.0 -99.0   -99  10.1   4.5  68.5  992.20  1599
2024-03-03 12:18 -99.0 -99.0   -99  10.1   4.7  68.9  992.30  1593
2024-03-03 12:16 -99.0 -99.0   -99   9.8   4.5  69.6  992.40  1600
2024-03-03 12:14 -99.0 -99.0   -99   9.9   4.4  68.7  992.50  1600
2024-03-03 12:12 -99.0 -99.0   -99  10.3   4.6  68.1  992.50  1603
2024-03-03 12:10 -99.0 -99.0   -99  10.4   4.8  68.2  992.50  1598
2024-03-03 12:08 -99.0 -99.0   -99  10.1   4.6  68.3  992.50  1592
2024-03-03 12:06 -99.0 -99.0   -99  10.2   4.7  68.2  992.70  1586
2024-03-03 12:04 -99.0 -99.0   -99  10.1   4.6  68.5  992.70  1580
2024-03-03 12:02 -99.0 -99.0   -99  10.3   4.7  68.6  992.70  1585
2024-03-03 12:00 -99.0 -99.0   -99  10.1   4.7  69.2  992.70  1592
2024-03-03 11:58 -99.0 -99.0   -99  10.0   4.7  69.2  992.70  1597
2024-03-03 11:56 -99.0 -99.0   -99  10.1   4.8  69.3  992.70  1597
2024-03-03 11:54 -99.0 -99.0   -99   9.8   4.7  70.7  992.70  1595
2024-03-03 11:52 -99.0 -99.0   -99   9.6   4.5  70.7  992.80  1568
2024-03-03 11:50 -99.0 -99.0   -99   9.4   4.5  71.2  992.80  1563
2024-03-03 11:48 -99.0 -99.0   -99   9.3   4.4  71.3  992.80  1571
2024-03-03 11:46 -99.0 -99.0   -99   9.4   4.4  71.0  992.90  1555
2024-03-03 11:44 -99.0 -99.0   -99   9.4   4.5  71.1  992.90  1565
2024-03-03 11:42 -99.0 -99.0   -99   9.5   4.5  71.0  993.00  1577
2024-03-03 11:40 -99.0 -99.0   -99   9.3   4.5  72.0  993.00  1587
2024-03-03 11:38 -99.0 -99.0   -99   9.0   4.4  72.8  993.00  1588
2024-03-03 11:36 -99.0 -99.0   -99   9.0   4.3  72.3  993.00  1586
2024-03-03 11:34 -99.0 -99.0   -99   9.1   4.3  72.1  993.10  1583